createdAt,value
2019-05-18T00:03:18.335Z,94246.77
2019-05-18T00:08:23.015Z,94245.53
2019-05-18T00:13:27.583Z,94244.36
2019-05-18T00:18:32.315Z,94240.78
2019-05-18T00:23:37.003Z,94238.79
2019-05-18T00:28:42.770Z,94247.76
2019-05-18T00:33:47.414Z,94248.06
2019-05-18T00:38:52.968Z,94244.66
2019-05-18T00:43:57.535Z,94239.09
2019-05-18T00:49:02.235Z,94234.42
2019-05-18T00:54:06.867Z,94235.12
2019-05-18T00:59:15.879Z,94242.81
2019-05-18T01:04:17.897Z,94239.00
2019-05-18T01:09:22.489Z,94237.52
2019-05-18T01:14:27.074Z,94231.55
2019-05-18T01:19:31.642Z,94223.05
2019-05-18T01:24:36.483Z,94225.73
2019-05-18T01:29:40.979Z,94225.55
2019-05-18T01:34:45.681Z,94228.89
2019-05-18T01:39:50.260Z,94230.25
2019-05-18T01:44:54.811Z,94210.14
2019-05-18T01:49:59.291Z,94202.84
2019-05-18T01:55:05.141Z,94199.52
2019-05-18T02:00:10.843Z,94199.18
2019-05-18T02:05:15.409Z,94191.20
2019-05-18T02:10:20.044Z,94194.02
2019-05-18T02:15:24.684Z,94180.75
2019-05-18T02:20:29.334Z,94180.08
2019-05-18T02:25:33.977Z,94176.59
2019-05-18T02:30:38.692Z,94182.27
2019-05-18T02:35:43.258Z,94188.56
2019-05-18T02:40:48.239Z,94191.54
2019-05-18T02:45:52.957Z,94192.04
2019-05-18T02:50:57.757Z,94188.55
2019-05-18T02:56:02.310Z,94187.05
2019-05-18T03:01:07.002Z,94182.09
2019-05-18T03:06:11.639Z,94176.77
2019-05-18T03:11:16.219Z,94184.89
2019-05-18T03:16:20.857Z,94193.05
2019-05-18T03:21:25.482Z,94191.05
2019-05-18T03:26:30.146Z,94192.20
2019-05-18T03:31:34.875Z,94205.16
2019-05-18T03:36:39.478Z,94213.30
2019-05-18T03:41:43.987Z,94215.13
2019-05-18T03:46:48.586Z,94211.98
2019-05-18T03:51:53.159Z,94219.77
2019-05-18T03:56:57.739Z,94215.95
2019-05-18T04:02:02.367Z,94224.11
2019-05-18T04:07:07.034Z,94225.94
2019-05-18T04:12:12.511Z,94223.09
2019-05-18T04:17:17.129Z,94223.73
2019-05-18T04:22:21.823Z,94231.48
2019-05-18T04:27:26.447Z,94228.12
2019-05-18T04:32:31.029Z,94222.19
2019-05-18T04:37:35.580Z,94226.16
2019-05-18T04:42:40.176Z,94224.42
2019-05-18T04:47:48.475Z,94225.42
2019-05-18T04:52:50.985Z,94231.69
2019-05-18T04:57:55.572Z,94236.36
2019-05-18T05:03:00.201Z,94237.33
2019-05-18T05:08:04.891Z,94239.81
2019-05-18T05:13:09.453Z,94244.61
2019-05-18T05:18:14.217Z,94247.64
2019-05-18T05:23:18.867Z,94259.34
2019-05-18T05:28:23.423Z,94261.37
2019-05-18T05:33:27.946Z,94247.98
2019-05-18T05:38:32.566Z,94249.18
2019-05-18T05:43:37.114Z,94249.97
2019-05-18T05:48:41.685Z,94251.98
2019-05-18T05:53:46.343Z,94255.44
2019-05-18T05:58:50.935Z,94254.68
2019-05-18T06:03:55.528Z,94259.06
2019-05-18T06:09:00.177Z,94264.98
2019-05-18T06:14:05.024Z,94260.28
2019-05-18T06:19:09.622Z,94266.91
2019-05-18T06:24:14.336Z,94259.82
2019-05-18T06:29:18.811Z,94261.42
2019-05-18T06:34:23.446Z,94271.63
2019-05-18T06:39:28.049Z,94277.52
2019-05-18T06:44:32.555Z,94286.25
2019-05-18T06:49:37.104Z,94272.09
2019-05-18T06:54:41.832Z,94268.34
2019-05-18T06:59:46.476Z,94261.13
2019-05-18T07:04:51.138Z,94264.19
2019-05-18T07:09:55.827Z,94266.03
2019-05-18T07:15:00.726Z,94257.62
2019-05-18T07:20:06.953Z,94261.51
2019-05-18T07:25:12.359Z,94262.17
2019-05-18T07:30:17.941Z,94262.57
2019-05-18T07:35:22.711Z,94255.02
2019-05-18T07:40:27.433Z,94251.93
2019-05-18T07:45:32.021Z,94250.59
2019-05-18T07:50:36.590Z,94248.80
2019-05-18T07:55:41.180Z,94244.09
2019-05-18T08:00:45.964Z,94243.44
2019-05-18T08:05:50.535Z,94242.36
2019-05-18T08:10:56.014Z,94244.86
2019-05-18T08:16:00.650Z,94240.50
2019-05-18T08:21:05.271Z,94238.56
2019-05-18T08:26:09.772Z,94238.23
2019-05-18T08:31:17.315Z,94237.53
2019-05-18T08:36:23.580Z,94229.84
2019-05-18T08:41:28.422Z,94235.98
2019-05-18T08:46:34.107Z,94222.64
2019-05-18T08:51:38.943Z,94224.66
2019-05-18T08:56:43.753Z,94221.27
2019-05-18T09:01:48.517Z,94222.77
2019-05-18T09:06:53.379Z,94221.28
2019-05-18T09:11:58.078Z,94225.30
2019-05-18T09:17:02.599Z,94218.66
2019-05-18T09:22:07.312Z,94211.54
2019-05-18T09:27:11.955Z,94209.65
2019-05-18T09:32:18.741Z,94206.84
2019-05-18T09:37:23.275Z,94192.94
2019-05-18T09:42:30.582Z,94180.80
2019-05-18T09:47:35.297Z,94176.23
2019-05-18T09:52:45.476Z,94182.23
2019-05-18T09:57:47.347Z,94177.63
2019-05-18T10:02:52.067Z,94167.45
2019-05-18T10:07:56.614Z,94159.23
2019-05-18T10:13:01.227Z,94159.72
2019-05-18T10:18:05.804Z,94141.59
2019-05-18T10:23:13.694Z,94143.20
2019-05-18T10:28:16.750Z,94147.80
2019-05-18T10:33:21.318Z,94138.22
2019-05-18T10:38:25.939Z,94132.18
2019-05-18T10:43:30.471Z,94129.00
2019-05-18T10:48:35.132Z,94124.05
2019-05-18T10:53:39.704Z,94123.30
2019-05-18T10:58:44.296Z,94113.33
2019-05-18T11:03:49.018Z,94116.41
2019-05-18T11:08:53.634Z,94102.92
2019-05-18T11:13:58.319Z,94092.55
2019-05-18T11:19:03.044Z,94096.70
2019-05-18T11:24:07.818Z,94090.81
2019-05-18T11:29:12.403Z,94081.47
2019-05-18T11:34:16.990Z,94071.80
2019-05-18T11:39:21.702Z,94062.83
2019-05-18T11:44:26.342Z,94054.89
2019-05-18T11:49:31.142Z,94037.38
2019-05-18T11:54:35.773Z,94046.41
2019-05-18T11:59:40.270Z,94034.55
2019-05-18T12:04:48.651Z,94024.91
2019-05-18T12:09:52.086Z,94027.53
2019-05-18T12:14:56.697Z,94024.48
2019-05-18T12:20:01.399Z,94015.58
2019-05-18T12:25:07.194Z,94011.30
2019-05-18T12:30:13.898Z,94004.80
2019-05-18T12:35:20.138Z,93997.17
2019-05-18T12:40:25.080Z,93984.19
2019-05-18T12:45:29.728Z,93986.53
2019-05-18T12:50:34.271Z,93976.67
2019-05-18T12:55:40.910Z,93975.11
2019-05-18T13:00:45.482Z,93975.61
2019-05-18T13:05:50.192Z,93968.53
2019-05-18T13:10:54.770Z,93958.46
2019-05-18T13:15:59.351Z,93962.78
2019-05-18T13:21:04.053Z,93958.39
2019-05-18T13:26:08.779Z,93953.84
2019-05-18T13:31:13.391Z,93947.25
2019-05-18T13:36:18.036Z,93937.45
2019-05-18T13:41:22.660Z,93929.25
2019-05-18T13:46:27.267Z,93933.64
2019-05-18T13:51:31.889Z,93933.39
2019-05-18T13:56:39.803Z,93929.58
2019-05-18T14:01:42.886Z,93921.13
2019-05-18T14:06:47.466Z,93924.67
2019-05-18T14:11:52.047Z,93917.27
2019-05-18T14:16:56.698Z,93913.95
2019-05-18T14:22:01.254Z,93917.05
2019-05-18T14:27:05.949Z,93905.00
2019-05-18T14:32:11.140Z,93913.47
2019-05-18T14:37:15.984Z,93916.39
2019-05-18T14:42:20.691Z,93913.61
2019-05-18T14:47:27.387Z,93905.52
2019-05-18T14:52:31.427Z,93907.88
2019-05-18T14:57:35.986Z,93904.20
2019-05-18T15:02:40.607Z,93903.33
2019-05-18T15:07:45.207Z,93895.45
2019-05-18T15:12:49.945Z,93890.03
2019-05-18T15:17:54.508Z,93886.61
2019-05-18T15:22:59.108Z,93889.08
2019-05-18T15:28:03.897Z,93888.94
2019-05-18T15:33:08.559Z,93885.73
2019-05-18T15:38:13.135Z,93895.55
2019-05-18T15:43:17.686Z,93897.85
2019-05-18T15:48:22.492Z,93901.59
2019-05-18T15:53:27.256Z,93888.69
2019-05-18T15:58:31.749Z,93895.58
2019-05-18T16:03:36.395Z,93894.00
2019-05-18T16:08:40.959Z,93900.06
2019-05-18T16:13:45.577Z,93906.88
2019-05-18T16:18:50.250Z,93904.77
2019-05-18T16:23:54.967Z,93897.57
2019-05-18T16:28:59.560Z,93902.80
2019-05-18T16:34:04.130Z,93900.37
2019-05-18T16:39:09.174Z,93895.89
2019-05-18T16:44:13.848Z,93903.63
2019-05-18T16:49:18.450Z,93908.05
2019-05-18T16:54:23.116Z,93905.34
2019-05-18T16:59:27.689Z,93908.95
2019-05-18T17:04:32.313Z,93903.66
2019-05-18T17:09:36.981Z,93901.00
2019-05-18T17:14:41.691Z,93903.54
2019-05-18T17:19:46.211Z,93907.67
2019-05-18T17:24:50.865Z,93896.70
2019-05-18T17:29:55.545Z,93907.82
2019-05-18T17:35:00.122Z,93911.16
2019-05-18T17:40:06.252Z,93915.51
2019-05-18T17:45:11.747Z,93929.61
2019-05-18T17:50:16.885Z,93930.70
2019-05-18T17:55:21.690Z,93916.85
2019-05-18T18:00:26.430Z,93921.84
2019-05-18T18:05:31.081Z,93926.53
2019-05-18T18:10:35.929Z,93936.02
2019-05-18T18:15:40.566Z,93946.28
2019-05-18T18:20:45.403Z,93942.45
2019-05-18T18:25:50.256Z,93940.78
2019-05-18T18:30:54.740Z,93952.02
2019-05-18T18:35:59.395Z,93942.53
2019-05-18T18:41:04.035Z,93942.88
2019-05-18T18:46:08.615Z,93950.03
2019-05-18T18:51:13.259Z,93962.06
2019-05-18T18:56:17.944Z,93973.89
2019-05-18T19:01:22.656Z,93971.75
2019-05-18T19:06:27.374Z,93978.25
2019-05-18T19:11:31.888Z,93980.81
2019-05-18T19:16:36.530Z,93976.13
2019-05-18T19:21:41.295Z,93980.72
2019-05-18T19:26:45.958Z,93990.30
2019-05-18T19:31:50.583Z,93971.80
2019-05-18T19:36:55.276Z,93985.87
2019-05-18T19:41:59.998Z,93982.44
2019-05-18T19:47:04.657Z,93988.30
2019-05-18T19:52:09.306Z,93980.56
2019-05-18T19:57:13.978Z,93978.86
2019-05-18T20:02:18.662Z,93976.23
2019-05-18T20:07:23.247Z,93969.46
2019-05-18T20:12:27.997Z,93968.05
2019-05-18T20:17:32.635Z,93983.02
2019-05-18T20:22:37.181Z,93994.70
2019-05-18T20:27:41.670Z,94004.58
2019-05-18T20:32:46.462Z,93998.55
2019-05-18T20:37:51.094Z,94008.28
2019-05-18T20:42:55.908Z,94017.52
2019-05-18T20:48:00.469Z,94030.28
2019-05-18T20:53:05.143Z,94026.95
2019-05-18T20:58:09.783Z,94031.19
2019-05-18T21:03:14.572Z,94036.58
2019-05-18T21:08:19.169Z,94028.61
2019-05-18T21:13:23.750Z,94033.95
2019-05-18T21:18:28.359Z,94022.34
2019-05-18T21:23:33.000Z,94026.44
2019-05-18T21:28:37.655Z,94029.84
2019-05-18T21:33:42.207Z,94029.95
2019-05-18T21:38:46.812Z,94016.00
2019-05-18T21:43:51.470Z,94021.19
2019-05-18T21:48:57.430Z,94021.19
2019-05-18T21:54:01.986Z,94017.37
2019-05-18T21:59:11.948Z,94021.27
2019-05-18T22:04:14.015Z,94021.27
2019-05-18T22:09:18.669Z,94023.67
2019-05-18T22:14:23.244Z,94021.94
2019-05-18T22:19:27.891Z,94023.01
2019-05-18T22:24:32.386Z,94023.05
2019-05-18T22:29:36.943Z,94023.05
2019-05-18T22:34:41.599Z,94029.51
2019-05-18T22:39:46.135Z,94026.64
2019-05-18T22:44:50.613Z,94026.42
2019-05-18T22:49:55.260Z,94023.34
2019-05-18T22:54:59.814Z,94025.00
2019-05-18T23:00:06.258Z,93986.41
2019-05-18T23:05:12.693Z,94021.64
2019-05-18T23:10:17.436Z,94021.64
2019-05-18T23:15:22.102Z,94016.02
2019-05-18T23:20:26.653Z,94018.82
2019-05-18T23:25:31.313Z,94015.94
2019-05-18T23:30:35.998Z,94018.16
2019-05-18T23:35:41.766Z,94018.16
2019-05-18T23:40:46.371Z,94029.53
2019-05-18T23:45:50.995Z,94034.48
2019-05-18T23:50:55.537Z,94026.45
2019-05-18T23:56:00.078Z,94028.21
